sensor_id;sensor_type;location;lat;lon;timestamp;P1;durP1;ratioP1;P2;durP2;ratioP2
56285;SDS011;42191;47.562;9.686;2023-05-02T00:00:44;37.28;;;34.97;;
56285;SDS011;42191;47.562;9.686;2023-05-02T00:03:10;36.13;;;33.92;;
56285;SDS011;42191;47.562;9.686;2023-05-02T00:05:37;36.85;;;34.60;;
56285;SDS011;42191;47.562;9.686;2023-05-02T00:08:04;37.40;;;35.00;;
56285;SDS011;42191;47.562;9.686;2023-05-02T00:10:30;40.03;;;37.53;;
56285;SDS011;42191;47.562;9.686;2023-05-02T00:12:57;37.50;;;35.20;;
56285;SDS011;42191;47.562;9.686;2023-05-02T00:15:23;35.67;;;33.47;;
56285;SDS011;42191;47.562;9.686;2023-05-02T00:17:51;35.45;;;33.25;;
56285;SDS011;42191;47.562;9.686;2023-05-02T00:20:17;37.47;;;35.10;;
56285;SDS011;42191;47.562;9.686;2023-05-02T00:22:43;34.95;;;32.75;;
56285;SDS011;42191;47.562;9.686;2023-05-02T00:25:09;37.45;;;35.15;;
56285;SDS011;42191;47.562;9.686;2023-05-02T00:27:40;37.10;;;34.88;;
56285;SDS011;42191;47.562;9.686;2023-05-02T00:30:07;38.35;;;36.00;;
56285;SDS011;42191;47.562;9.686;2023-05-02T00:32:33;37.13;;;34.83;;
56285;SDS011;42191;47.562;9.686;2023-05-02T00:34:59;36.97;;;34.67;;
56285;SDS011;42191;47.562;9.686;2023-05-02T00:37:26;36.67;;;34.38;;
56285;SDS011;42191;47.562;9.686;2023-05-02T00:39:55;38.42;;;36.13;;
56285;SDS011;42191;47.562;9.686;2023-05-02T00:42:21;39.40;;;36.90;;
56285;SDS011;42191;47.562;9.686;2023-05-02T00:44:47;39.80;;;37.30;;
56285;SDS011;42191;47.562;9.686;2023-05-02T00:47:13;37.65;;;35.35;;
56285;SDS011;42191;47.562;9.686;2023-05-02T00:49:40;38.55;;;36.15;;
56285;SDS011;42191;47.562;9.686;2023-05-02T00:52:07;36.30;;;34.08;;
56285;SDS011;42191;47.562;9.686;2023-05-02T00:54:33;38.22;;;35.92;;
56285;SDS011;42191;47.562;9.686;2023-05-02T00:57:02;37.10;;;34.80;;
56285;SDS011;42191;47.562;9.686;2023-05-02T00:59:29;37.17;;;34.88;;
56285;SDS011;42191;47.562;9.686;2023-05-02T01:05:12;35.90;;;33.17;;
56285;SDS011;42191;47.562;9.686;2023-05-02T01:13:39;36.67;;;34.47;;
56285;SDS011;42191;47.562;9.686;2023-05-02T01:16:08;35.83;;;33.63;;
56285;SDS011;42191;47.562;9.686;2023-05-02T01:18:39;38.80;;;36.42;;
56285;SDS011;42191;47.562;9.686;2023-05-02T01:21:08;38.60;;;36.28;;
56285;SDS011;42191;47.562;9.686;2023-05-02T01:23:47;34.15;;;32.05;;
56285;SDS011;42191;47.562;9.686;2023-05-02T01:26:35;37.55;;;35.25;;
56285;SDS011;42191;47.562;9.686;2023-05-02T01:29:07;37.63;;;35.33;;
56285;SDS011;42191;47.562;9.686;2023-05-02T01:31:39;35.03;;;32.85;;
56285;SDS011;42191;47.562;9.686;2023-05-02T01:34:08;37.78;;;35.38;;
56285;SDS011;42191;47.562;9.686;2023-05-02T01:36:36;35.58;;;33.40;;
56285;SDS011;42191;47.562;9.686;2023-05-02T01:39:07;35.92;;;33.75;;
56285;SDS011;42191;47.562;9.686;2023-05-02T01:41:36;35.05;;;32.95;;
56285;SDS011;42191;47.562;9.686;2023-05-02T01:44:03;35.78;;;33.55;;
56285;SDS011;42191;47.562;9.686;2023-05-02T01:46:32;33.92;;;31.83;;
56285;SDS011;42191;47.562;9.686;2023-05-02T01:49:04;35.83;;;33.58;;
56285;SDS011;42191;47.562;9.686;2023-05-02T01:51:33;36.50;;;34.22;;
56285;SDS011;42191;47.562;9.686;2023-05-02T01:54:02;36.75;;;34.45;;
56285;SDS011;42191;47.562;9.686;2023-05-02T01:56:32;36.75;;;34.35;;
56285;SDS011;42191;47.562;9.686;2023-05-02T01:59:01;36.85;;;34.55;;
56285;SDS011;42191;47.562;9.686;2023-05-02T02:01:29;36.63;;;34.42;;
56285;SDS011;42191;47.562;9.686;2023-05-02T02:03:56;34.83;;;32.72;;
56285;SDS011;42191;47.562;9.686;2023-05-02T02:06:24;35.70;;;33.55;;
56285;SDS011;42191;47.562;9.686;2023-05-02T02:08:51;34.88;;;32.78;;
56285;SDS011;42191;47.562;9.686;2023-05-02T02:11:20;34.65;;;32.55;;
56285;SDS011;42191;47.562;9.686;2023-05-02T02:13:58;37.95;;;35.55;;
56285;SDS011;42191;47.562;9.686;2023-05-02T02:16:29;34.75;;;32.55;;
56285;SDS011;42191;47.562;9.686;2023-05-02T02:18:58;35.58;;;33.38;;
56285;SDS011;42191;47.562;9.686;2023-05-02T02:21:28;36.45;;;34.25;;
56285;SDS011;42191;47.562;9.686;2023-05-02T02:23:56;35.45;;;33.25;;
56285;SDS011;42191;47.562;9.686;2023-05-02T02:26:26;38.15;;;35.83;;
56285;SDS011;42191;47.562;9.686;2023-05-02T02:28:52;35.30;;;33.10;;
56285;SDS011;42191;47.562;9.686;2023-05-02T02:31:19;37.38;;;35.05;;
56285;SDS011;42191;47.562;9.686;2023-05-02T02:33:45;38.40;;;36.05;;
56285;SDS011;42191;47.562;9.686;2023-05-02T02:36:20;36.88;;;34.63;;
56285;SDS011;42191;47.562;9.686;2023-05-02T02:38:56;36.38;;;34.15;;
56285;SDS011;42191;47.562;9.686;2023-05-02T02:41:54;35.65;;;33.45;;
56285;SDS011;42191;47.562;9.686;2023-05-02T02:50:03;36.92;;;34.67;;
56285;SDS011;42191;47.562;9.686;2023-05-02T02:55:44;34.97;;;32.78;;
56285;SDS011;42191;47.562;9.686;2023-05-02T03:01:17;36.42;;;34.13;;
56285;SDS011;42191;47.562;9.686;2023-05-02T03:03:46;37.45;;;35.25;;
56285;SDS011;42191;47.562;9.686;2023-05-02T03:06:16;37.08;;;34.88;;
56285;SDS011;42191;47.562;9.686;2023-05-02T03:08:43;36.58;;;34.10;;
56285;SDS011;42191;47.562;9.686;2023-05-02T03:11:09;36.90;;;34.70;;
56285;SDS011;42191;47.562;9.686;2023-05-02T03:13:35;35.58;;;33.47;;
56285;SDS011;42191;47.562;9.686;2023-05-02T03:19:05;36.38;;;34.17;;
56285;SDS011;42191;47.562;9.686;2023-05-02T03:21:33;36.60;;;34.40;;
56285;SDS011;42191;47.562;9.686;2023-05-02T03:24:00;35.83;;;33.63;;
56285;SDS011;42191;47.562;9.686;2023-05-02T03:26:27;37.15;;;34.95;;
56285;SDS011;42191;47.562;9.686;2023-05-02T03:28:54;35.15;;;33.05;;
56285;SDS011;42191;47.562;9.686;2023-05-02T03:31:21;35.42;;;33.22;;
56285;SDS011;42191;47.562;9.686;2023-05-02T03:33:47;35.47;;;33.38;;
56285;SDS011;42191;47.562;9.686;2023-05-02T03:36:13;36.80;;;34.60;;
56285;SDS011;42191;47.562;9.686;2023-05-02T03:38:40;34.15;;;31.77;;
56285;SDS011;42191;47.562;9.686;2023-05-02T03:41:06;36.25;;;33.85;;
56285;SDS011;42191;47.562;9.686;2023-05-02T03:43:32;35.78;;;33.63;;
56285;SDS011;42191;47.562;9.686;2023-05-02T03:46:03;34.00;;;32.00;;
56285;SDS011;42191;47.562;9.686;2023-05-02T03:48:32;35.97;;;33.83;;
56285;SDS011;42191;47.562;9.686;2023-05-02T03:50:58;32.95;;;30.95;;
56285;SDS011;42191;47.562;9.686;2023-05-02T03:53:26;34.00;;;31.90;;
56285;SDS011;42191;47.562;9.686;2023-05-02T03:55:53;34.78;;;32.58;;
56285;SDS011;42191;47.562;9.686;2023-05-02T03:58:19;35.28;;;33.17;;
56285;SDS011;42191;47.562;9.686;2023-05-02T04:00:46;35.20;;;33.10;;
56285;SDS011;42191;47.562;9.686;2023-05-02T04:03:12;35.25;;;33.00;;
56285;SDS011;42191;47.562;9.686;2023-05-02T04:05:38;36.72;;;34.53;;
56285;SDS011;42191;47.562;9.686;2023-05-02T04:08:04;36.30;;;34.10;;
56285;SDS011;42191;47.562;9.686;2023-05-02T04:10:30;34.63;;;32.33;;
56285;SDS011;42191;47.562;9.686;2023-05-02T04:12:56;37.22;;;34.95;;
56285;SDS011;42191;47.562;9.686;2023-05-02T04:15:22;35.35;;;33.25;;
56285;SDS011;42191;47.562;9.686;2023-05-02T04:17:49;35.92;;;33.75;;
56285;SDS011;42191;47.562;9.686;2023-05-02T04:20:15;36.05;;;33.85;;
56285;SDS011;42191;47.562;9.686;2023-05-02T04:22:41;35.25;;;33.15;;
56285;SDS011;42191;47.562;9.686;2023-05-02T04:25:07;35.53;;;32.58;;
56285;SDS011;42191;47.562;9.686;2023-05-02T04:27:33;33.22;;;31.23;;
56285;SDS011;42191;47.562;9.686;2023-05-02T04:29:59;34.03;;;31.98;;
56285;SDS011;42191;47.562;9.686;2023-05-02T04:32:25;34.58;;;32.47;;
56285;SDS011;42191;47.562;9.686;2023-05-02T04:34:52;38.70;;;36.22;;
56285;SDS011;42191;47.562;9.686;2023-05-02T04:37:18;35.47;;;33.38;;
56285;SDS011;42191;47.562;9.686;2023-05-02T04:39:44;35.55;;;33.35;;
56285;SDS011;42191;47.562;9.686;2023-05-02T04:42:10;35.42;;;33.22;;
56285;SDS011;42191;47.562;9.686;2023-05-02T04:44:36;36.55;;;34.35;;
56285;SDS011;42191;47.562;9.686;2023-05-02T04:47:02;35.30;;;33.20;;
56285;SDS011;42191;47.562;9.686;2023-05-02T04:49:29;36.58;;;34.38;;
56285;SDS011;42191;47.562;9.686;2023-05-02T04:51:56;34.13;;;32.05;;
56285;SDS011;42191;47.562;9.686;2023-05-02T04:54:22;35.70;;;33.53;;
56285;SDS011;42191;47.562;9.686;2023-05-02T04:56:48;34.67;;;32.58;;
56285;SDS011;42191;47.562;9.686;2023-05-02T04:59:15;35.78;;;33.47;;
56285;SDS011;42191;47.562;9.686;2023-05-02T05:01:41;33.92;;;31.92;;
56285;SDS011;42191;47.562;9.686;2023-05-02T05:04:07;35.08;;;32.92;;
56285;SDS011;42191;47.562;9.686;2023-05-02T05:06:34;35.50;;;33.30;;
56285;SDS011;42191;47.562;9.686;2023-05-02T05:09:00;35.53;;;33.13;;
56285;SDS011;42191;47.562;9.686;2023-05-02T05:11:26;35.92;;;33.60;;
56285;SDS011;42191;47.562;9.686;2023-05-02T05:13:52;34.70;;;32.60;;
56285;SDS011;42191;47.562;9.686;2023-05-02T05:16:19;36.40;;;34.20;;
56285;SDS011;42191;47.562;9.686;2023-05-02T05:18:45;36.65;;;34.28;;
56285;SDS011;42191;47.562;9.686;2023-05-02T05:21:13;35.75;;;33.63;;
56285;SDS011;42191;47.562;9.686;2023-05-02T05:23:39;35.80;;;33.63;;
56285;SDS011;42191;47.562;9.686;2023-05-02T05:26:13;34.20;;;32.10;;
56285;SDS011;42191;47.562;9.686;2023-05-02T05:28:40;36.13;;;33.92;;
56285;SDS011;42191;47.562;9.686;2023-05-02T05:31:07;35.92;;;33.70;;
56285;SDS011;42191;47.562;9.686;2023-05-02T05:33:35;35.90;;;33.70;;
56285;SDS011;42191;47.562;9.686;2023-05-02T05:36:03;35.78;;;33.58;;
56285;SDS011;42191;47.562;9.686;2023-05-02T05:38:33;36.13;;;33.92;;
56285;SDS011;42191;47.562;9.686;2023-05-02T05:41:00;35.03;;;32.92;;
56285;SDS011;42191;47.562;9.686;2023-05-02T05:43:27;35.45;;;33.28;;
56285;SDS011;42191;47.562;9.686;2023-05-02T05:45:54;35.08;;;32.97;;
56285;SDS011;42191;47.562;9.686;2023-05-02T05:48:21;36.95;;;34.75;;
56285;SDS011;42191;47.562;9.686;2023-05-02T05:50:47;35.17;;;33.08;;
56285;SDS011;42191;47.562;9.686;2023-05-02T05:53:14;34.78;;;32.67;;
56285;SDS011;42191;47.562;9.686;2023-05-02T05:55:40;34.55;;;32.45;;
56285;SDS011;42191;47.562;9.686;2023-05-02T05:58:06;36.22;;;33.85;;
56285;SDS011;42191;47.562;9.686;2023-05-02T06:00:33;34.40;;;32.20;;
56285;SDS011;42191;47.562;9.686;2023-05-02T06:03:00;35.35;;;33.22;;
56285;SDS011;42191;47.562;9.686;2023-05-02T06:05:27;35.28;;;33.13;;
56285;SDS011;42191;47.562;9.686;2023-05-02T06:07:54;36.45;;;34.22;;
56285;SDS011;42191;47.562;9.686;2023-05-02T06:10:23;34.95;;;32.85;;
56285;SDS011;42191;47.562;9.686;2023-05-02T06:12:49;34.75;;;32.65;;
56285;SDS011;42191;47.562;9.686;2023-05-02T06:15:16;36.15;;;33.95;;
56285;SDS011;42191;47.562;9.686;2023-05-02T06:17:42;36.65;;;34.40;;
56285;SDS011;42191;47.562;9.686;2023-05-02T06:20:08;35.75;;;33.58;;
56285;SDS011;42191;47.562;9.686;2023-05-02T06:22:35;35.38;;;33.28;;
56285;SDS011;42191;47.562;9.686;2023-05-02T06:25:01;35.55;;;33.38;;
56285;SDS011;42191;47.562;9.686;2023-05-02T06:27:29;37.00;;;34.70;;
56285;SDS011;42191;47.562;9.686;2023-05-02T06:29:55;36.10;;;33.80;;
56285;SDS011;42191;47.562;9.686;2023-05-02T06:32:21;34.13;;;32.03;;
56285;SDS011;42191;47.562;9.686;2023-05-02T06:34:48;35.72;;;33.55;;
56285;SDS011;42191;47.562;9.686;2023-05-02T06:37:15;34.58;;;32.45;;
56285;SDS011;42191;47.562;9.686;2023-05-02T06:39:41;36.38;;;34.08;;
56285;SDS011;42191;47.562;9.686;2023-05-02T06:42:07;35.22;;;32.90;;
56285;SDS011;42191;47.562;9.686;2023-05-02T06:44:33;35.58;;;33.38;;
56285;SDS011;42191;47.562;9.686;2023-05-02T06:46:59;36.58;;;34.28;;
56285;SDS011;42191;47.562;9.686;2023-05-02T06:49:25;35.97;;;33.67;;
56285;SDS011;42191;47.562;9.686;2023-05-02T06:51:52;37.15;;;34.85;;
56285;SDS011;42191;47.562;9.686;2023-05-02T06:54:18;35.70;;;33.42;;
56285;SDS011;42191;47.562;9.686;2023-05-02T06:56:45;35.65;;;33.45;;
56285;SDS011;42191;47.562;9.686;2023-05-02T06:59:11;35.58;;;33.35;;
56285;SDS011;42191;47.562;9.686;2023-05-02T07:01:38;36.08;;;33.88;;
56285;SDS011;42191;47.562;9.686;2023-05-02T07:04:04;36.08;;;33.80;;
56285;SDS011;42191;47.562;9.686;2023-05-02T07:06:30;36.45;;;34.20;;
56285;SDS011;42191;47.562;9.686;2023-05-02T07:08:56;37.22;;;34.92;;
56285;SDS011;42191;47.562;9.686;2023-05-02T07:11:23;35.85;;;33.65;;
56285;SDS011;42191;47.562;9.686;2023-05-02T07:13:49;36.83;;;34.53;;
56285;SDS011;42191;47.562;9.686;2023-05-02T07:16:15;35.30;;;33.10;;
56285;SDS011;42191;47.562;9.686;2023-05-02T07:18:41;34.47;;;32.38;;
56285;SDS011;42191;47.562;9.686;2023-05-02T07:21:09;36.55;;;34.20;;
56285;SDS011;42191;47.562;9.686;2023-05-02T07:23:39;35.20;;;33.08;;
56285;SDS011;42191;47.562;9.686;2023-05-02T07:26:05;34.92;;;32.72;;
56285;SDS011;42191;47.562;9.686;2023-05-02T07:28:32;34.60;;;32.50;;
56285;SDS011;42191;47.562;9.686;2023-05-02T07:30:58;35.65;;;33.45;;
56285;SDS011;42191;47.562;9.686;2023-05-02T07:33:24;34.20;;;31.52;;
56285;SDS011;42191;47.562;9.686;2023-05-02T07:35:50;35.95;;;33.78;;
56285;SDS011;42191;47.562;9.686;2023-05-02T07:38:16;37.30;;;35.05;;
56285;SDS011;42191;47.562;9.686;2023-05-02T07:40:43;35.85;;;33.65;;
56285;SDS011;42191;47.562;9.686;2023-05-02T07:43:10;34.45;;;32.35;;
56285;SDS011;42191;47.562;9.686;2023-05-02T07:45:37;34.53;;;32.45;;
56285;SDS011;42191;47.562;9.686;2023-05-02T07:48:03;35.47;;;33.35;;
56285;SDS011;42191;47.562;9.686;2023-05-02T07:50:29;35.45;;;33.35;;
56285;SDS011;42191;47.562;9.686;2023-05-02T07:52:55;35.13;;;32.95;;
56285;SDS011;42191;47.562;9.686;2023-05-02T07:55:22;36.42;;;34.22;;
56285;SDS011;42191;47.562;9.686;2023-05-02T07:57:50;35.35;;;33.25;;
56285;SDS011;42191;47.562;9.686;2023-05-02T08:00:17;33.65;;;31.65;;
56285;SDS011;42191;47.562;9.686;2023-05-02T08:02:43;34.90;;;32.80;;
56285;SDS011;42191;47.562;9.686;2023-05-02T08:05:10;35.58;;;33.45;;
56285;SDS011;42191;47.562;9.686;2023-05-02T08:07:36;36.33;;;33.75;;
56285;SDS011;42191;47.562;9.686;2023-05-02T08:10:03;35.40;;;33.20;;
56285;SDS011;42191;47.562;9.686;2023-05-02T08:12:30;35.85;;;33.65;;
56285;SDS011;42191;47.562;9.686;2023-05-02T08:14:56;34.35;;;32.30;;
56285;SDS011;42191;47.562;9.686;2023-05-02T08:17:22;36.33;;;34.13;;
56285;SDS011;42191;47.562;9.686;2023-05-02T08:19:48;34.55;;;32.45;;
56285;SDS011;42191;47.562;9.686;2023-05-02T08:22:14;33.08;;;31.08;;
56285;SDS011;42191;47.562;9.686;2023-05-02T08:24:40;34.00;;;31.90;;
56285;SDS011;42191;47.562;9.686;2023-05-02T08:27:07;33.50;;;31.50;;
56285;SDS011;42191;47.562;9.686;2023-05-02T08:29:33;32.00;;;30.10;;
56285;SDS011;42191;47.562;9.686;2023-05-02T08:31:59;33.38;;;31.38;;
56285;SDS011;42191;47.562;9.686;2023-05-02T08:34:25;35.30;;;33.20;;
56285;SDS011;42191;47.562;9.686;2023-05-02T08:36:51;35.17;;;33.08;;
56285;SDS011;42191;47.562;9.686;2023-05-02T08:39:17;32.80;;;30.83;;
56285;SDS011;42191;47.562;9.686;2023-05-02T08:41:43;33.40;;;31.40;;
56285;SDS011;42191;47.562;9.686;2023-05-02T08:44:10;33.38;;;31.35;;
56285;SDS011;42191;47.562;9.686;2023-05-02T08:46:39;33.53;;;31.48;;
56285;SDS011;42191;47.562;9.686;2023-05-02T08:49:06;35.38;;;33.17;;
56285;SDS011;42191;47.562;9.686;2023-05-02T08:51:34;34.75;;;32.67;;
56285;SDS011;42191;47.562;9.686;2023-05-02T08:54:01;33.42;;;31.42;;
56285;SDS011;42191;47.562;9.686;2023-05-02T08:56:28;34.90;;;32.78;;
56285;SDS011;42191;47.562;9.686;2023-05-02T08:58:54;35.40;;;33.30;;
56285;SDS011;42191;47.562;9.686;2023-05-02T09:01:23;33.47;;;31.48;;
56285;SDS011;42191;47.562;9.686;2023-05-02T09:03:54;34.78;;;32.67;;
56285;SDS011;42191;47.562;9.686;2023-05-02T09:06:22;33.08;;;31.08;;
56285;SDS011;42191;47.562;9.686;2023-05-02T09:08:49;33.88;;;31.88;;
56285;SDS011;42191;47.562;9.686;2023-05-02T09:11:20;34.90;;;32.80;;
56285;SDS011;42191;47.562;9.686;2023-05-02T09:18:50;35.33;;;33.17;;
56285;SDS011;42191;47.562;9.686;2023-05-02T09:21:18;34.10;;;31.70;;
56285;SDS011;42191;47.562;9.686;2023-05-02T09:26:17;36.75;;;34.53;;
56285;SDS011;42191;47.562;9.686;2023-05-02T09:28:44;34.38;;;32.28;;
56285;SDS011;42191;47.562;9.686;2023-05-02T09:31:16;34.00;;;31.92;;
56285;SDS011;42191;47.562;9.686;2023-05-02T09:33:46;35.05;;;32.90;;
56285;SDS011;42191;47.562;9.686;2023-05-02T09:36:14;34.00;;;31.92;;
56285;SDS011;42191;47.562;9.686;2023-05-02T09:38:42;33.38;;;31.38;;
56285;SDS011;42191;47.562;9.686;2023-05-02T09:41:09;32.28;;;30.27;;
56285;SDS011;42191;47.562;9.686;2023-05-02T09:43:36;33.90;;;31.90;;
56285;SDS011;42191;47.562;9.686;2023-05-02T09:48:50;32.95;;;31.00;;
56285;SDS011;42191;47.562;9.686;2023-05-02T09:51:20;34.45;;;32.05;;
56285;SDS011;42191;47.562;9.686;2023-05-02T09:53:47;33.83;;;31.83;;
56285;SDS011;42191;47.562;9.686;2023-05-02T09:56:14;33.28;;;31.33;;
56285;SDS011;42191;47.562;9.686;2023-05-02T09:58:41;32.45;;;30.50;;
56285;SDS011;42191;47.562;9.686;2023-05-02T10:01:07;34.65;;;32.55;;
56285;SDS011;42191;47.562;9.686;2023-05-02T10:03:40;34.80;;;32.70;;
56285;SDS011;42191;47.562;9.686;2023-05-02T10:06:09;32.97;;;30.88;;
56285;SDS011;42191;47.562;9.686;2023-05-02T10:08:35;34.15;;;32.03;;
56285;SDS011;42191;47.562;9.686;2023-05-02T10:11:03;34.67;;;32.47;;
56285;SDS011;42191;47.562;9.686;2023-05-02T10:13:31;34.78;;;32.55;;
56285;SDS011;42191;47.562;9.686;2023-05-02T10:16:02;34.65;;;32.55;;
56285;SDS011;42191;47.562;9.686;2023-05-02T10:18:37;33.03;;;30.95;;
56285;SDS011;42191;47.562;9.686;2023-05-02T10:21:09;35.60;;;33.40;;
56285;SDS011;42191;47.562;9.686;2023-05-02T10:23:37;32.70;;;30.70;;
56285;SDS011;42191;47.562;9.686;2023-05-02T10:26:07;34.50;;;32.33;;
56285;SDS011;42191;47.562;9.686;2023-05-02T10:28:39;34.17;;;31.98;;
56285;SDS011;42191;47.562;9.686;2023-05-02T10:31:08;33.95;;;31.85;;
56285;SDS011;42191;47.562;9.686;2023-05-02T10:33:36;33.35;;;31.33;;
56285;SDS011;42191;47.562;9.686;2023-05-02T10:36:03;33.33;;;31.23;;
56285;SDS011;42191;47.562;9.686;2023-05-02T10:38:32;33.70;;;31.60;;
56285;SDS011;42191;47.562;9.686;2023-05-02T10:41:04;33.00;;;30.88;;
56285;SDS011;42191;47.562;9.686;2023-05-02T10:43:40;33.47;;;31.42;;
56285;SDS011;42191;47.562;9.686;2023-05-02T10:46:28;33.45;;;31.15;;
56285;SDS011;42191;47.562;9.686;2023-05-02T10:49:05;31.55;;;29.55;;
56285;SDS011;42191;47.562;9.686;2023-05-02T10:51:36;34.33;;;32.13;;
56285;SDS011;42191;47.562;9.686;2023-05-02T10:54:24;33.20;;;31.00;;
56285;SDS011;42191;47.562;9.686;2023-05-02T10:59:35;33.50;;;31.50;;
56285;SDS011;42191;47.562;9.686;2023-05-02T11:02:03;32.97;;;30.95;;
56285;SDS011;42191;47.562;9.686;2023-05-02T11:05:06;32.53;;;30.52;;
56285;SDS011;42191;47.562;9.686;2023-05-02T11:07:33;33.20;;;31.13;;
56285;SDS011;42191;47.562;9.686;2023-05-02T11:12:48;33.60;;;31.50;;
56285;SDS011;42191;47.562;9.686;2023-05-02T11:15:52;33.67;;;31.48;;
56285;SDS011;42191;47.562;9.686;2023-05-02T11:18:08;33.22;;;31.13;;
56285;SDS011;42191;47.562;9.686;2023-05-02T11:20:45;33.03;;;30.92;;
56285;SDS011;42191;47.562;9.686;2023-05-02T11:25:48;35.58;;;33.35;;
56285;SDS011;42191;47.562;9.686;2023-05-02T11:31:08;35.88;;;33.58;;
56285;SDS011;42191;47.562;9.686;2023-05-02T11:33:59;35.10;;;32.85;;
56285;SDS011;42191;47.562;9.686;2023-05-02T11:36:27;35.15;;;32.92;;
56285;SDS011;42191;47.562;9.686;2023-05-02T11:38:54;34.75;;;32.45;;
56285;SDS011;42191;47.562;9.686;2023-05-02T11:41:20;33.30;;;31.17;;
56285;SDS011;42191;47.562;9.686;2023-05-02T11:43:46;33.92;;;31.83;;
56285;SDS011;42191;47.562;9.686;2023-05-02T11:46:26;36.20;;;33.80;;
56285;SDS011;42191;47.562;9.686;2023-05-02T11:48:52;35.00;;;32.80;;
56285;SDS011;42191;47.562;9.686;2023-05-02T11:51:21;37.25;;;34.85;;
56285;SDS011;42191;47.562;9.686;2023-05-02T11:53:48;33.67;;;31.48;;
56285;SDS011;42191;47.562;9.686;2023-05-02T11:56:14;33.40;;;31.30;;
56285;SDS011;42191;47.562;9.686;2023-05-02T11:58:47;32.75;;;30.65;;
56285;SDS011;42191;47.562;9.686;2023-05-02T12:01:26;33.90;;;31.77;;
56285;SDS011;42191;47.562;9.686;2023-05-02T12:04:04;34.90;;;32.70;;
56285;SDS011;42191;47.562;9.686;2023-05-02T12:06:31;34.45;;;32.22;;
56285;SDS011;42191;47.562;9.686;2023-05-02T12:09:05;34.70;;;32.50;;
56285;SDS011;42191;47.562;9.686;2023-05-02T12:11:32;34.70;;;32.50;;
56285;SDS011;42191;47.562;9.686;2023-05-02T12:13:59;35.53;;;33.33;;
56285;SDS011;42191;47.562;9.686;2023-05-02T12:16:26;36.05;;;33.75;;
56285;SDS011;42191;47.562;9.686;2023-05-02T12:18:52;35.55;;;33.05;;
56285;SDS011;42191;47.562;9.686;2023-05-02T12:21:20;35.15;;;32.92;;
56285;SDS011;42191;47.562;9.686;2023-05-02T12:23:46;34.65;;;32.45;;
56285;SDS011;42191;47.562;9.686;2023-05-02T12:26:20;35.35;;;33.15;;
56285;SDS011;42191;47.562;9.686;2023-05-02T12:28:53;33.83;;;31.52;;
56285;SDS011;42191;47.562;9.686;2023-05-02T12:31:20;34.63;;;32.42;;
56285;SDS011;42191;47.562;9.686;2023-05-02T12:33:47;33.65;;;31.55;;
56285;SDS011;42191;47.562;9.686;2023-05-02T12:36:15;33.13;;;31.02;;
56285;SDS011;42191;47.562;9.686;2023-05-02T12:38:49;34.55;;;32.40;;
56285;SDS011;42191;47.562;9.686;2023-05-02T12:41:17;34.38;;;32.28;;
56285;SDS011;42191;47.562;9.686;2023-05-02T12:43:47;34.15;;;32.05;;
56285;SDS011;42191;47.562;9.686;2023-05-02T12:46:15;34.85;;;32.45;;
56285;SDS011;42191;47.562;9.686;2023-05-02T12:48:41;34.05;;;31.90;;
56285;SDS011;42191;47.562;9.686;2023-05-02T12:51:19;35.17;;;32.88;;
56285;SDS011;42191;47.562;9.686;2023-05-02T12:53:47;34.47;;;32.33;;
56285;SDS011;42191;47.562;9.686;2023-05-02T12:56:13;33.00;;;30.98;;
56285;SDS011;42191;47.562;9.686;2023-05-02T12:58:40;35.28;;;33.08;;
56285;SDS011;42191;47.562;9.686;2023-05-02T13:01:08;37.08;;;34.72;;
56285;SDS011;42191;47.562;9.686;2023-05-02T13:03:35;33.05;;;31.02;;
56285;SDS011;42191;47.562;9.686;2023-05-02T13:06:01;34.70;;;32.60;;
56285;SDS011;42191;47.562;9.686;2023-05-02T13:08:28;34.38;;;32.28;;
56285;SDS011;42191;47.562;9.686;2023-05-02T13:10:54;33.90;;;31.88;;
56285;SDS011;42191;47.562;9.686;2023-05-02T13:13:20;32.13;;;30.13;;
56285;SDS011;42191;47.562;9.686;2023-05-02T13:15:46;32.28;;;30.27;;
56285;SDS011;42191;47.562;9.686;2023-05-02T13:18:12;30.80;;;28.90;;
56285;SDS011;42191;47.562;9.686;2023-05-02T13:20:38;31.13;;;29.23;;
56285;SDS011;42191;47.562;9.686;2023-05-02T13:23:04;28.77;;;26.98;;
56285;SDS011;42191;47.562;9.686;2023-05-02T13:25:30;28.42;;;26.63;;
56285;SDS011;42191;47.562;9.686;2023-05-02T13:27:57;26.95;;;25.30;;
56285;SDS011;42191;47.562;9.686;2023-05-02T13:30:23;27.40;;;25.70;;
56285;SDS011;42191;47.562;9.686;2023-05-02T13:32:49;26.98;;;25.27;;
56285;SDS011;42191;47.562;9.686;2023-05-02T13:35:15;27.45;;;25.77;;
56285;SDS011;42191;47.562;9.686;2023-05-02T13:37:42;28.88;;;26.80;;
56285;SDS011;42191;47.562;9.686;2023-05-02T13:40:08;32.15;;;29.65;;
56285;SDS011;42191;47.562;9.686;2023-05-02T13:42:35;30.65;;;28.42;;
56285;SDS011;42191;47.562;9.686;2023-05-02T13:45:01;30.75;;;28.65;;
56285;SDS011;42191;47.562;9.686;2023-05-02T13:47:29;30.60;;;28.70;;
56285;SDS011;42191;47.562;9.686;2023-05-02T13:49:55;30.67;;;28.77;;
56285;SDS011;42191;47.562;9.686;2023-05-02T13:52:21;30.23;;;28.42;;
56285;SDS011;42191;47.562;9.686;2023-05-02T13:54:47;28.20;;;26.42;;
56285;SDS011;42191;47.562;9.686;2023-05-02T13:57:13;30.75;;;28.60;;
56285;SDS011;42191;47.562;9.686;2023-05-02T13:59:40;31.10;;;29.15;;
56285;SDS011;42191;47.562;9.686;2023-05-02T14:02:06;31.23;;;29.33;;
56285;SDS011;42191;47.562;9.686;2023-05-02T14:04:32;31.05;;;29.15;;
56285;SDS011;42191;47.562;9.686;2023-05-02T14:06:58;31.95;;;29.88;;
56285;SDS011;42191;47.562;9.686;2023-05-02T14:09:24;31.15;;;29.25;;
56285;SDS011;42191;47.562;9.686;2023-05-02T14:11:51;33.97;;;31.50;;
56285;SDS011;42191;47.562;9.686;2023-05-02T14:14:17;32.10;;;30.00;;
56285;SDS011;42191;47.562;9.686;2023-05-02T14:16:43;29.27;;;27.38;;
56285;SDS011;42191;47.562;9.686;2023-05-02T14:19:09;33.40;;;31.35;;
56285;SDS011;42191;47.562;9.686;2023-05-02T14:21:35;30.58;;;28.67;;
56285;SDS011;42191;47.562;9.686;2023-05-02T14:24:03;31.85;;;29.67;;
56285;SDS011;42191;47.562;9.686;2023-05-02T14:26:30;32.38;;;30.35;;
56285;SDS011;42191;47.562;9.686;2023-05-02T14:28:57;31.80;;;29.80;;
56285;SDS011;42191;47.562;9.686;2023-05-02T14:31:23;30.08;;;28.17;;
56285;SDS011;42191;47.562;9.686;2023-05-02T14:33:49;32.67;;;30.58;;
56285;SDS011;42191;47.562;9.686;2023-05-02T14:36:15;30.35;;;28.45;;
56285;SDS011;42191;47.562;9.686;2023-05-02T14:38:41;28.30;;;26.50;;
56285;SDS011;42191;47.562;9.686;2023-05-02T14:41:07;30.25;;;28.45;;
56285;SDS011;42191;47.562;9.686;2023-05-02T14:43:34;32.88;;;30.60;;
56285;SDS011;42191;47.562;9.686;2023-05-02T14:46:01;31.70;;;29.67;;
56285;SDS011;42191;47.562;9.686;2023-05-02T14:48:27;31.90;;;29.83;;
56285;SDS011;42191;47.562;9.686;2023-05-02T14:50:54;31.27;;;29.27;;
56285;SDS011;42191;47.562;9.686;2023-05-02T14:53:21;30.85;;;28.95;;
56285;SDS011;42191;47.562;9.686;2023-05-02T14:55:47;30.85;;;28.85;;
56285;SDS011;42191;47.562;9.686;2023-05-02T14:58:13;30.65;;;28.67;;
56285;SDS011;42191;47.562;9.686;2023-05-02T15:00:44;29.58;;;27.67;;
56285;SDS011;42191;47.562;9.686;2023-05-02T15:03:11;31.45;;;29.55;;
56285;SDS011;42191;47.562;9.686;2023-05-02T15:05:37;30.58;;;28.73;;
56285;SDS011;42191;47.562;9.686;2023-05-02T15:08:04;29.10;;;27.23;;
56285;SDS011;42191;47.562;9.686;2023-05-02T15:10:30;29.77;;;27.98;;